sensor_id;sensor_type;location;lat;lon;timestamp;P1;durP1;ratioP1;P2;durP2;ratioP2
32760;SDS011;19126;47.472;7.850;2023-09-19T00:00:56;0.82;;;0.50;;
32760;SDS011;19126;47.472;7.850;2023-09-19T00:03:25;1.23;;;0.82;;
32760;SDS011;19126;47.472;7.850;2023-09-19T00:05:53;1.17;;;0.73;;
32760;SDS011;19126;47.472;7.850;2023-09-19T00:08:21;2.20;;;0.98;;
32760;SDS011;19126;47.472;7.850;2023-09-19T00:10:49;2.15;;;0.82;;
32760;SDS011;19126;47.472;7.850;2023-09-19T00:13:16;4.72;;;0.80;;
32760;SDS011;19126;47.472;7.850;2023-09-19T00:15:44;2.75;;;0.90;;
32760;SDS011;19126;47.472;7.850;2023-09-19T00:18:14;1.02;;;0.73;;
32760;SDS011;19126;47.472;7.850;2023-09-19T00:20:45;1.35;;;0.68;;
32760;SDS011;19126;47.472;7.850;2023-09-19T00:23:14;0.82;;;0.75;;
32760;SDS011;19126;47.472;7.850;2023-09-19T00:25:42;1.85;;;0.90;;
32760;SDS011;19126;47.472;7.850;2023-09-19T00:28:10;3.40;;;0.90;;
32760;SDS011;19126;47.472;7.850;2023-09-19T00:30:37;4.53;;;0.77;;
32760;SDS011;19126;47.472;7.850;2023-09-19T00:33:05;2.53;;;0.60;;
32760;SDS011;19126;47.472;7.850;2023-09-19T00:35:33;1.48;;;0.60;;
32760;SDS011;19126;47.472;7.850;2023-09-19T00:38:03;0.73;;;0.70;;
32760;SDS011;19126;47.472;7.850;2023-09-19T00:40:31;1.00;;;0.70;;
32760;SDS011;19126;47.472;7.850;2023-09-19T00:43:00;2.08;;;0.75;;
32760;SDS011;19126;47.472;7.850;2023-09-19T00:45:27;1.02;;;0.82;;
32760;SDS011;19126;47.472;7.850;2023-09-19T00:47:55;1.30;;;0.70;;
32760;SDS011;19126;47.472;7.850;2023-09-19T00:50:24;0.80;;;0.73;;
32760;SDS011;19126;47.472;7.850;2023-09-19T00:52:54;9.32;;;0.95;;
32760;SDS011;19126;47.472;7.850;2023-09-19T00:55:23;3.83;;;0.80;;
32760;SDS011;19126;47.472;7.850;2023-09-19T00:57:53;3.10;;;0.57;;
32760;SDS011;19126;47.472;7.850;2023-09-19T01:00:23;0.70;;;0.68;;
32760;SDS011;19126;47.472;7.850;2023-09-19T01:02:51;4.15;;;1.17;;
32760;SDS011;19126;47.472;7.850;2023-09-19T01:05:19;3.03;;;0.75;;
32760;SDS011;19126;47.472;7.850;2023-09-19T01:07:46;3.28;;;1.10;;
32760;SDS011;19126;47.472;7.850;2023-09-19T01:10:14;3.72;;;0.90;;
32760;SDS011;19126;47.472;7.850;2023-09-19T01:12:47;1.67;;;0.97;;
32760;SDS011;19126;47.472;7.850;2023-09-19T01:15:28;2.35;;;0.80;;
32760;SDS011;19126;47.472;7.850;2023-09-19T01:18:11;2.38;;;0.90;;
32760;SDS011;19126;47.472;7.850;2023-09-19T01:20:55;1.65;;;0.85;;
32760;SDS011;19126;47.472;7.850;2023-09-19T01:23:40;1.33;;;0.60;;
32760;SDS011;19126;47.472;7.850;2023-09-19T01:26:40;2.83;;;1.10;;
32760;SDS011;19126;47.472;7.850;2023-09-19T01:29:34;2.40;;;1.00;;
32760;SDS011;19126;47.472;7.850;2023-09-19T01:32:07;2.45;;;1.13;;
32760;SDS011;19126;47.472;7.850;2023-09-19T01:34:44;1.55;;;0.82;;
32760;SDS011;19126;47.472;7.850;2023-09-19T01:37:13;4.75;;;0.73;;
32760;SDS011;19126;47.472;7.850;2023-09-19T01:39:45;1.73;;;0.70;;
32760;SDS011;19126;47.472;7.850;2023-09-19T01:42:18;1.92;;;0.82;;
32760;SDS011;19126;47.472;7.850;2023-09-19T01:44:57;1.92;;;0.80;;
32760;SDS011;19126;47.472;7.850;2023-09-19T01:47:41;4.88;;;0.63;;
32760;SDS011;19126;47.472;7.850;2023-09-19T01:50:17;0.60;;;0.60;;
32760;SDS011;19126;47.472;7.850;2023-09-19T01:52:56;2.58;;;0.70;;
32760;SDS011;19126;47.472;7.850;2023-09-19T01:55:30;2.53;;;0.95;;
32760;SDS011;19126;47.472;7.850;2023-09-19T01:58:04;1.08;;;0.80;;
32760;SDS011;19126;47.472;7.850;2023-09-19T02:00:40;4.30;;;1.17;;
32760;SDS011;19126;47.472;7.850;2023-09-19T02:03:11;0.85;;;0.70;;
32760;SDS011;19126;47.472;7.850;2023-09-19T02:05:39;7.35;;;1.50;;
32760;SDS011;19126;47.472;7.850;2023-09-19T02:08:06;5.30;;;1.25;;
32760;SDS011;19126;47.472;7.850;2023-09-19T02:10:34;1.73;;;0.80;;
32760;SDS011;19126;47.472;7.850;2023-09-19T02:13:01;2.13;;;1.30;;
32760;SDS011;19126;47.472;7.850;2023-09-19T02:15:30;3.97;;;1.40;;
32760;SDS011;19126;47.472;7.850;2023-09-19T02:17:59;3.38;;;1.02;;
32760;SDS011;19126;47.472;7.850;2023-09-19T02:20:29;1.73;;;0.98;;
32760;SDS011;19126;47.472;7.850;2023-09-19T02:22:58;6.28;;;1.05;;
32760;SDS011;19126;47.472;7.850;2023-09-19T02:25:25;3.08;;;0.98;;
32760;SDS011;19126;47.472;7.850;2023-09-19T02:27:53;2.47;;;1.10;;
32760;SDS011;19126;47.472;7.850;2023-09-19T02:30:23;5.15;;;1.08;;
32760;SDS011;19126;47.472;7.850;2023-09-19T02:32:51;3.42;;;0.65;;
32760;SDS011;19126;47.472;7.850;2023-09-19T02:35:18;2.00;;;1.00;;
32760;SDS011;19126;47.472;7.850;2023-09-19T02:37:47;1.67;;;0.98;;
32760;SDS011;19126;47.472;7.850;2023-09-19T02:40:15;1.08;;;1.00;;
32760;SDS011;19126;47.472;7.850;2023-09-19T02:42:46;0.80;;;0.75;;
32760;SDS011;19126;47.472;7.850;2023-09-19T02:45:15;3.30;;;0.90;;
32760;SDS011;19126;47.472;7.850;2023-09-19T02:47:46;6.67;;;1.07;;
32760;SDS011;19126;47.472;7.850;2023-09-19T02:50:14;3.83;;;1.40;;
32760;SDS011;19126;47.472;7.850;2023-09-19T02:52:42;4.57;;;1.80;;
32760;SDS011;19126;47.472;7.850;2023-09-19T02:55:14;3.40;;;1.20;;
32760;SDS011;19126;47.472;7.850;2023-09-19T03:00:14;5.60;;;0.95;;
32760;SDS011;19126;47.472;7.850;2023-09-19T03:02:46;5.22;;;1.35;;
32760;SDS011;19126;47.472;7.850;2023-09-19T03:05:13;1.77;;;0.88;;
32760;SDS011;19126;47.472;7.850;2023-09-19T03:07:40;7.03;;;0.93;;
32760;SDS011;19126;47.472;7.850;2023-09-19T03:10:11;3.58;;;1.20;;
32760;SDS011;19126;47.472;7.850;2023-09-19T03:12:42;6.32;;;1.25;;
32760;SDS011;19126;47.472;7.850;2023-09-19T03:15:09;2.47;;;1.30;;
32760;SDS011;19126;47.472;7.850;2023-09-19T03:17:37;2.35;;;1.33;;
32760;SDS011;19126;47.472;7.850;2023-09-19T03:20:10;11.05;;;1.02;;
32760;SDS011;19126;47.472;7.850;2023-09-19T03:22:39;3.42;;;1.40;;
32760;SDS011;19126;47.472;7.850;2023-09-19T03:25:07;7.85;;;1.50;;
32760;SDS011;19126;47.472;7.850;2023-09-19T03:27:36;2.05;;;1.00;;
32760;SDS011;19126;47.472;7.850;2023-09-19T03:30:06;4.80;;;1.50;;
32760;SDS011;19126;47.472;7.850;2023-09-19T03:32:34;4.07;;;1.58;;
32760;SDS011;19126;47.472;7.850;2023-09-19T03:35:02;1.88;;;1.30;;
32760;SDS011;19126;47.472;7.850;2023-09-19T03:37:31;3.28;;;1.73;;
32760;SDS011;19126;47.472;7.850;2023-09-19T03:39:58;8.27;;;1.30;;
32760;SDS011;19126;47.472;7.850;2023-09-19T03:42:29;4.40;;;1.63;;
32760;SDS011;19126;47.472;7.850;2023-09-19T03:44:57;6.85;;;1.63;;
32760;SDS011;19126;47.472;7.850;2023-09-19T03:47:27;6.20;;;1.60;;
32760;SDS011;19126;47.472;7.850;2023-09-19T03:49:54;3.33;;;1.27;;
32760;SDS011;19126;47.472;7.850;2023-09-19T03:52:21;4.85;;;1.65;;
32760;SDS011;19126;47.472;7.850;2023-09-19T03:54:50;5.95;;;1.83;;
32760;SDS011;19126;47.472;7.850;2023-09-19T03:57:17;6.50;;;1.88;;
32760;SDS011;19126;47.472;7.850;2023-09-19T03:59:45;5.20;;;1.60;;
32760;SDS011;19126;47.472;7.850;2023-09-19T04:02:13;4.72;;;1.40;;
32760;SDS011;19126;47.472;7.850;2023-09-19T04:04:48;2.88;;;1.35;;
32760;SDS011;19126;47.472;7.850;2023-09-19T04:07:16;8.43;;;1.98;;
32760;SDS011;19126;47.472;7.850;2023-09-19T04:09:44;5.72;;;1.95;;
32760;SDS011;19126;47.472;7.850;2023-09-19T04:12:11;8.88;;;1.48;;
32760;SDS011;19126;47.472;7.850;2023-09-19T04:14:41;4.93;;;1.38;;
32760;SDS011;19126;47.472;7.850;2023-09-19T04:17:09;8.98;;;1.85;;
32760;SDS011;19126;47.472;7.850;2023-09-19T04:19:36;6.47;;;2.08;;
32760;SDS011;19126;47.472;7.850;2023-09-19T04:22:05;2.90;;;1.60;;
32760;SDS011;19126;47.472;7.850;2023-09-19T04:24:32;3.40;;;1.63;;
32760;SDS011;19126;47.472;7.850;2023-09-19T04:26:59;3.28;;;1.60;;
32760;SDS011;19126;47.472;7.850;2023-09-19T04:29:27;6.38;;;2.00;;
32760;SDS011;19126;47.472;7.850;2023-09-19T04:31:54;8.32;;;2.60;;
32760;SDS011;19126;47.472;7.850;2023-09-19T04:34:22;6.30;;;1.65;;
32760;SDS011;19126;47.472;7.850;2023-09-19T04:36:50;6.30;;;1.83;;
32760;SDS011;19126;47.472;7.850;2023-09-19T04:39:20;5.55;;;1.42;;
32760;SDS011;19126;47.472;7.850;2023-09-19T04:41:50;4.05;;;2.03;;
32760;SDS011;19126;47.472;7.850;2023-09-19T04:44:18;4.63;;;1.50;;
32760;SDS011;19126;47.472;7.850;2023-09-19T04:46:45;2.38;;;1.65;;
32760;SDS011;19126;47.472;7.850;2023-09-19T04:49:13;5.88;;;2.00;;
32760;SDS011;19126;47.472;7.850;2023-09-19T04:51:40;9.68;;;1.92;;
32760;SDS011;19126;47.472;7.850;2023-09-19T04:54:07;8.88;;;1.60;;
32760;SDS011;19126;47.472;7.850;2023-09-19T04:56:37;2.65;;;1.27;;
32760;SDS011;19126;47.472;7.850;2023-09-19T04:59:05;3.45;;;1.40;;
32760;SDS011;19126;47.472;7.850;2023-09-19T05:01:32;5.28;;;1.40;;
32760;SDS011;19126;47.472;7.850;2023-09-19T05:04:00;10.05;;;1.80;;
32760;SDS011;19126;47.472;7.850;2023-09-19T05:06:30;6.28;;;1.70;;
32760;SDS011;19126;47.472;7.850;2023-09-19T05:09:00;3.75;;;1.67;;
32760;SDS011;19126;47.472;7.850;2023-09-19T05:11:30;3.72;;;1.40;;
32760;SDS011;19126;47.472;7.850;2023-09-19T05:13:59;2.70;;;1.40;;
32760;SDS011;19126;47.472;7.850;2023-09-19T05:16:29;3.83;;;1.35;;
32760;SDS011;19126;47.472;7.850;2023-09-19T05:18:57;5.22;;;1.25;;
32760;SDS011;19126;47.472;7.850;2023-09-19T05:21:25;3.88;;;1.60;;
32760;SDS011;19126;47.472;7.850;2023-09-19T05:23:53;7.68;;;1.20;;
32760;SDS011;19126;47.472;7.850;2023-09-19T05:26:21;3.10;;;1.02;;
32760;SDS011;19126;47.472;7.850;2023-09-19T05:28:48;5.35;;;1.52;;
32760;SDS011;19126;47.472;7.850;2023-09-19T05:31:17;4.40;;;1.30;;
32760;SDS011;19126;47.472;7.850;2023-09-19T05:33:45;1.55;;;1.08;;
32760;SDS011;19126;47.472;7.850;2023-09-19T05:36:12;4.15;;;1.55;;
32760;SDS011;19126;47.472;7.850;2023-09-19T05:38:41;3.53;;;1.15;;
32760;SDS011;19126;47.472;7.850;2023-09-19T05:41:09;6.18;;;1.42;;
32760;SDS011;19126;47.472;7.850;2023-09-19T05:43:38;4.80;;;1.40;;
32760;SDS011;19126;47.472;7.850;2023-09-19T05:46:06;4.60;;;1.65;;
32760;SDS011;19126;47.472;7.850;2023-09-19T05:48:35;4.65;;;1.60;;
32760;SDS011;19126;47.472;7.850;2023-09-19T05:51:04;10.43;;;2.15;;
32760;SDS011;19126;47.472;7.850;2023-09-19T05:53:32;7.75;;;1.60;;
32760;SDS011;19126;47.472;7.850;2023-09-19T05:55:59;5.72;;;1.67;;
32760;SDS011;19126;47.472;7.850;2023-09-19T05:58:27;8.65;;;1.90;;
32760;SDS011;19126;47.472;7.850;2023-09-19T06:00:54;4.38;;;1.70;;
32760;SDS011;19126;47.472;7.850;2023-09-19T06:03:22;3.70;;;1.95;;
32760;SDS011;19126;47.472;7.850;2023-09-19T06:05:51;4.53;;;1.88;;
32760;SDS011;19126;47.472;7.850;2023-09-19T06:08:22;4.65;;;2.10;;
32760;SDS011;19126;47.472;7.850;2023-09-19T06:10:51;5.25;;;1.80;;
32760;SDS011;19126;47.472;7.850;2023-09-19T06:13:19;4.40;;;1.50;;
32760;SDS011;19126;47.472;7.850;2023-09-19T06:15:46;3.83;;;1.90;;
32760;SDS011;19126;47.472;7.850;2023-09-19T06:18:14;3.05;;;1.15;;
32760;SDS011;19126;47.472;7.850;2023-09-19T06:20:45;5.50;;;1.58;;
32760;SDS011;19126;47.472;7.850;2023-09-19T06:23:15;3.88;;;1.80;;
32760;SDS011;19126;47.472;7.850;2023-09-19T06:25:42;5.55;;;1.35;;
32760;SDS011;19126;47.472;7.850;2023-09-19T06:28:09;2.78;;;1.48;;
32760;SDS011;19126;47.472;7.850;2023-09-19T06:30:38;5.78;;;1.65;;
32760;SDS011;19126;47.472;7.850;2023-09-19T06:33:06;7.20;;;1.90;;
32760;SDS011;19126;47.472;7.850;2023-09-19T06:35:36;5.15;;;1.80;;
32760;SDS011;19126;47.472;7.850;2023-09-19T06:38:04;7.53;;;2.08;;
32760;SDS011;19126;47.472;7.850;2023-09-19T06:40:34;9.07;;;2.47;;
32760;SDS011;19126;47.472;7.850;2023-09-19T06:43:02;11.10;;;2.72;;
32760;SDS011;19126;47.472;7.850;2023-09-19T06:45:31;9.75;;;3.08;;
32760;SDS011;19126;47.472;7.850;2023-09-19T06:47:58;11.35;;;2.90;;
32760;SDS011;19126;47.472;7.850;2023-09-19T06:50:28;7.20;;;2.47;;
32760;SDS011;19126;47.472;7.850;2023-09-19T06:52:56;12.30;;;2.97;;
32760;SDS011;19126;47.472;7.850;2023-09-19T06:55:25;5.65;;;2.17;;
32760;SDS011;19126;47.472;7.850;2023-09-19T06:57:57;7.25;;;2.20;;
32760;SDS011;19126;47.472;7.850;2023-09-19T07:00:25;8.73;;;1.88;;
32760;SDS011;19126;47.472;7.850;2023-09-19T07:03:02;7.38;;;1.90;;
32760;SDS011;19126;47.472;7.850;2023-09-19T07:05:34;7.85;;;2.53;;
32760;SDS011;19126;47.472;7.850;2023-09-19T07:08:02;3.78;;;1.60;;
32760;SDS011;19126;47.472;7.850;2023-09-19T07:10:31;6.65;;;1.65;;
32760;SDS011;19126;47.472;7.850;2023-09-19T07:13:01;5.68;;;1.90;;
32760;SDS011;19126;47.472;7.850;2023-09-19T07:15:32;3.05;;;1.58;;
32760;SDS011;19126;47.472;7.850;2023-09-19T07:18:00;3.55;;;1.65;;
32760;SDS011;19126;47.472;7.850;2023-09-19T07:20:28;6.55;;;2.08;;
32760;SDS011;19126;47.472;7.850;2023-09-19T07:22:57;6.38;;;1.70;;
32760;SDS011;19126;47.472;7.850;2023-09-19T07:25:25;5.35;;;1.90;;
32760;SDS011;19126;47.472;7.850;2023-09-19T07:27:54;8.23;;;1.80;;
32760;SDS011;19126;47.472;7.850;2023-09-19T07:30:26;5.20;;;2.00;;
32760;SDS011;19126;47.472;7.850;2023-09-19T07:32:54;5.78;;;1.90;;
32760;SDS011;19126;47.472;7.850;2023-09-19T07:35:21;9.90;;;2.05;;
32760;SDS011;19126;47.472;7.850;2023-09-19T07:37:49;5.88;;;1.40;;
32760;SDS011;19126;47.472;7.850;2023-09-19T07:40:16;3.85;;;1.55;;
32760;SDS011;19126;47.472;7.850;2023-09-19T07:42:45;2.08;;;1.25;;
32760;SDS011;19126;47.472;7.850;2023-09-19T07:45:13;7.55;;;2.20;;
32760;SDS011;19126;47.472;7.850;2023-09-19T07:47:45;4.10;;;1.52;;
32760;SDS011;19126;47.472;7.850;2023-09-19T07:50:13;7.20;;;2.67;;
32760;SDS011;19126;47.472;7.850;2023-09-19T07:52:41;3.60;;;1.45;;
32760;SDS011;19126;47.472;7.850;2023-09-19T07:55:09;4.72;;;1.42;;
32760;SDS011;19126;47.472;7.850;2023-09-19T07:57:36;5.15;;;1.48;;
32760;SDS011;19126;47.472;7.850;2023-09-19T08:00:06;3.65;;;1.95;;
32760;SDS011;19126;47.472;7.850;2023-09-19T08:02:37;3.28;;;1.38;;
32760;SDS011;19126;47.472;7.850;2023-09-19T08:05:06;5.70;;;1.80;;
32760;SDS011;19126;47.472;7.850;2023-09-19T08:07:36;7.85;;;1.58;;
32760;SDS011;19126;47.472;7.850;2023-09-19T08:10:04;4.53;;;1.67;;
32760;SDS011;19126;47.472;7.850;2023-09-19T08:12:38;7.88;;;1.85;;
32760;SDS011;19126;47.472;7.850;2023-09-19T08:15:12;4.57;;;1.40;;
32760;SDS011;19126;47.472;7.850;2023-09-19T08:17:40;5.63;;;1.70;;
32760;SDS011;19126;47.472;7.850;2023-09-19T08:20:12;5.53;;;1.52;;
32760;SDS011;19126;47.472;7.850;2023-09-19T08:22:46;6.00;;;1.67;;
32760;SDS011;19126;47.472;7.850;2023-09-19T08:25:15;5.65;;;1.80;;
32760;SDS011;19126;47.472;7.850;2023-09-19T08:27:43;4.45;;;1.60;;
32760;SDS011;19126;47.472;7.850;2023-09-19T08:30:14;5.25;;;1.30;;
32760;SDS011;19126;47.472;7.850;2023-09-19T08:32:41;4.68;;;1.40;;
32760;SDS011;19126;47.472;7.850;2023-09-19T08:35:09;3.17;;;1.63;;
32760;SDS011;19126;47.472;7.850;2023-09-19T08:37:38;4.82;;;1.65;;
32760;SDS011;19126;47.472;7.850;2023-09-19T08:40:05;4.60;;;1.40;;
32760;SDS011;19126;47.472;7.850;2023-09-19T08:42:47;3.03;;;1.25;;
32760;SDS011;19126;47.472;7.850;2023-09-19T08:45:16;3.70;;;1.70;;
32760;SDS011;19126;47.472;7.850;2023-09-19T08:47:45;8.95;;;1.50;;
32760;SDS011;19126;47.472;7.850;2023-09-19T08:50:23;8.57;;;1.83;;
32760;SDS011;19126;47.472;7.850;2023-09-19T08:52:56;5.18;;;1.80;;
32760;SDS011;19126;47.472;7.850;2023-09-19T08:55:32;4.45;;;1.63;;
32760;SDS011;19126;47.472;7.850;2023-09-19T08:58:03;2.53;;;1.40;;
32760;SDS011;19126;47.472;7.850;2023-09-19T09:00:33;7.80;;;1.63;;
32760;SDS011;19126;47.472;7.850;2023-09-19T09:03:02;3.22;;;1.27;;
32760;SDS011;19126;47.472;7.850;2023-09-19T09:05:31;3.70;;;1.38;;
32760;SDS011;19126;47.472;7.850;2023-09-19T09:08:06;6.93;;;1.60;;
32760;SDS011;19126;47.472;7.850;2023-09-19T09:10:35;3.83;;;1.40;;
32760;SDS011;19126;47.472;7.850;2023-09-19T09:13:05;4.93;;;1.70;;
32760;SDS011;19126;47.472;7.850;2023-09-19T09:15:34;3.30;;;1.55;;
32760;SDS011;19126;47.472;7.850;2023-09-19T09:18:03;6.18;;;1.95;;
32760;SDS011;19126;47.472;7.850;2023-09-19T09:20:31;6.70;;;1.48;;
32760;SDS011;19126;47.472;7.850;2023-09-19T09:22:58;5.85;;;1.45;;
32760;SDS011;19126;47.472;7.850;2023-09-19T09:28:20;5.47;;;1.27;;
32760;SDS011;19126;47.472;7.850;2023-09-19T09:30:49;6.18;;;1.45;;
32760;SDS011;19126;47.472;7.850;2023-09-19T09:33:17;4.72;;;1.70;;
32760;SDS011;19126;47.472;7.850;2023-09-19T09:35:51;3.85;;;1.55;;
32760;SDS011;19126;47.472;7.850;2023-09-19T09:38:22;4.13;;;1.75;;
32760;SDS011;19126;47.472;7.850;2023-09-19T09:40:54;4.60;;;1.45;;
32760;SDS011;19126;47.472;7.850;2023-09-19T09:43:27;5.00;;;1.40;;
32760;SDS011;19126;47.472;7.850;2023-09-19T09:46:10;4.15;;;1.70;;
32760;SDS011;19126;47.472;7.850;2023-09-19T09:48:58;6.63;;;1.60;;
32760;SDS011;19126;47.472;7.850;2023-09-19T09:51:41;4.70;;;1.98;;
32760;SDS011;19126;47.472;7.850;2023-09-19T09:54:12;5.68;;;2.20;;
32760;SDS011;19126;47.472;7.850;2023-09-19T09:56:53;2.92;;;1.40;;
32760;SDS011;19126;47.472;7.850;2023-09-19T10:02:41;5.95;;;1.65;;
32760;SDS011;19126;47.472;7.850;2023-09-19T10:05:12;4.43;;;1.60;;
32760;SDS011;19126;47.472;7.850;2023-09-19T10:07:46;4.28;;;1.20;;
32760;SDS011;19126;47.472;7.850;2023-09-19T10:10:29;6.07;;;1.80;;
32760;SDS011;19126;47.472;7.850;2023-09-19T10:13:10;3.90;;;1.63;;
32760;SDS011;19126;47.472;7.850;2023-09-19T10:15:40;7.22;;;1.33;;
32760;SDS011;19126;47.472;7.850;2023-09-19T10:18:14;2.58;;;1.25;;
32760;SDS011;19126;47.472;7.850;2023-09-19T10:20:44;6.25;;;1.60;;
32760;SDS011;19126;47.472;7.850;2023-09-19T10:23:13;2.97;;;1.33;;
32760;SDS011;19126;47.472;7.850;2023-09-19T10:25:45;4.30;;;1.25;;
32760;SDS011;19126;47.472;7.850;2023-09-19T10:28:15;2.72;;;1.33;;
32760;SDS011;19126;47.472;7.850;2023-09-19T10:30:47;5.10;;;1.38;;
32760;SDS011;19126;47.472;7.850;2023-09-19T10:33:16;3.05;;;1.35;;
32760;SDS011;19126;47.472;7.850;2023-09-19T10:35:46;4.30;;;1.52;;
32760;SDS011;19126;47.472;7.850;2023-09-19T10:38:17;7.40;;;1.70;;
32760;SDS011;19126;47.472;7.850;2023-09-19T10:40:48;5.72;;;1.40;;
32760;SDS011;19126;47.472;7.850;2023-09-19T10:43:18;5.80;;;1.77;;
32760;SDS011;19126;47.472;7.850;2023-09-19T10:45:48;3.92;;;1.55;;
32760;SDS011;19126;47.472;7.850;2023-09-19T10:48:18;2.17;;;1.35;;
32760;SDS011;19126;47.472;7.850;2023-09-19T10:50:51;9.60;;;1.35;;
32760;SDS011;19126;47.472;7.850;2023-09-19T10:53:26;6.18;;;1.58;;
32760;SDS011;19126;47.472;7.850;2023-09-19T10:55:56;3.05;;;1.45;;
32760;SDS011;19126;47.472;7.850;2023-09-19T10:58:30;5.32;;;1.27;;
32760;SDS011;19126;47.472;7.850;2023-09-19T11:01:04;1.98;;;1.33;;
32760;SDS011;19126;47.472;7.850;2023-09-19T11:03:37;6.25;;;1.60;;
32760;SDS011;19126;47.472;7.850;2023-09-19T11:06:09;6.00;;;1.20;;
32760;SDS011;19126;47.472;7.850;2023-09-19T11:11:47;3.72;;;1.38;;
32760;SDS011;19126;47.472;7.850;2023-09-19T11:20:15;3.67;;;1.42;;
32760;SDS011;19126;47.472;7.850;2023-09-19T11:23:20;13.35;;;1.50;;
32760;SDS011;19126;47.472;7.850;2023-09-19T11:25:51;3.10;;;1.50;;
32760;SDS011;19126;47.472;7.850;2023-09-19T11:28:29;1.80;;;1.30;;
32760;SDS011;19126;47.472;7.850;2023-09-19T11:30:58;4.07;;;1.73;;
32760;SDS011;19126;47.472;7.850;2023-09-19T11:33:45;5.15;;;1.38;;
32760;SDS011;19126;47.472;7.850;2023-09-19T11:36:15;2.15;;;1.27;;
32760;SDS011;19126;47.472;7.850;2023-09-19T11:38:59;5.00;;;1.95;;
32760;SDS011;19126;47.472;7.850;2023-09-19T11:41:38;1.98;;;1.20;;
32760;SDS011;19126;47.472;7.850;2023-09-19T11:47:05;5.25;;;1.67;;
32760;SDS011;19126;47.472;7.850;2023-09-19T11:52:07;2.35;;;1.25;;
32760;SDS011;19126;47.472;7.850;2023-09-19T11:54:36;2.22;;;1.50;;
32760;SDS011;19126;47.472;7.850;2023-09-19T11:57:06;5.18;;;1.35;;
32760;SDS011;19126;47.472;7.850;2023-09-19T11:59:38;5.90;;;1.63;;
32760;SDS011;19126;47.472;7.850;2023-09-19T12:02:07;7.70;;;1.77;;
32760;SDS011;19126;47.472;7.850;2023-09-19T12:04:38;5.05;;;1.23;;
32760;SDS011;19126;47.472;7.850;2023-09-19T12:07:09;4.55;;;1.48;;
32760;SDS011;19126;47.472;7.850;2023-09-19T12:09:40;2.05;;;1.10;;
32760;SDS011;19126;47.472;7.850;2023-09-19T12:12:18;3.00;;;1.48;;
32760;SDS011;19126;47.472;7.850;2023-09-19T12:14:47;3.35;;;1.10;;
32760;SDS011;19126;47.472;7.850;2023-09-19T12:17:16;2.72;;;1.20;;
32760;SDS011;19126;47.472;7.850;2023-09-19T12:19:49;2.30;;;1.10;;
32760;SDS011;19126;47.472;7.850;2023-09-19T12:22:17;4.40;;;1.65;;
32760;SDS011;19126;47.472;7.850;2023-09-19T12:24:45;2.97;;;1.15;;
32760;SDS011;19126;47.472;7.850;2023-09-19T12:27:13;3.33;;;1.30;;
32760;SDS011;19126;47.472;7.850;2023-09-19T12:29:42;2.47;;;1.02;;
32760;SDS011;19126;47.472;7.850;2023-09-19T12:32:11;1.98;;;1.10;;
32760;SDS011;19126;47.472;7.850;2023-09-19T12:34:49;4.40;;;1.45;;
32760;SDS011;19126;47.472;7.850;2023-09-19T12:37:19;5.05;;;1.50;;
32760;SDS011;19126;47.472;7.850;2023-09-19T12:39:48;1.55;;;1.10;;
32760;SDS011;19126;47.472;7.850;2023-09-19T12:42:20;4.95;;;2.13;;
32760;SDS011;19126;47.472;7.850;2023-09-19T12:44:49;2.50;;;1.25;;
32760;SDS011;19126;47.472;7.850;2023-09-19T12:47:20;5.20;;;1.73;;
32760;SDS011;19126;47.472;7.850;2023-09-19T12:50:09;3.63;;;1.40;;
32760;SDS011;19126;47.472;7.850;2023-09-19T12:52:44;6.57;;;1.45;;
32760;SDS011;19126;47.472;7.850;2023-09-19T12:55:19;3.33;;;1.33;;
32760;SDS011;19126;47.472;7.850;2023-09-19T12:57:55;3.25;;;1.75;;
32760;SDS011;19126;47.472;7.850;2023-09-19T13:00:34;4.22;;;1.63;;
32760;SDS011;19126;47.472;7.850;2023-09-19T13:03:17;5.43;;;1.70;;
32760;SDS011;19126;47.472;7.850;2023-09-19T13:05:50;5.30;;;1.60;;
32760;SDS011;19126;47.472;7.850;2023-09-19T13:08:21;5.35;;;1.70;;
32760;SDS011;19126;47.472;7.850;2023-09-19T13:11:02;3.47;;;1.73;;
32760;SDS011;19126;47.472;7.850;2023-09-19T13:13:37;7.15;;;1.40;;
32760;SDS011;19126;47.472;7.850;2023-09-19T13:16:09;3.30;;;1.25;;
32760;SDS011;19126;47.472;7.850;2023-09-19T13:18:43;4.97;;;1.40;;
32760;SDS011;19126;47.472;7.850;2023-09-19T13:21:14;4.32;;;1.55;;
32760;SDS011;19126;47.472;7.850;2023-09-19T13:23:48;4.43;;;1.50;;
32760;SDS011;19126;47.472;7.850;2023-09-19T13:26:19;2.17;;;1.35;;
32760;SDS011;19126;47.472;7.850;2023-09-19T13:28:47;3.15;;;1.23;;
32760;SDS011;19126;47.472;7.850;2023-09-19T13:31:15;4.03;;;1.48;;
32760;SDS011;19126;47.472;7.850;2023-09-19T13:33:43;3.67;;;1.50;;
32760;SDS011;19126;47.472;7.850;2023-09-19T13:36:11;3.33;;;1.13;;
32760;SDS011;19126;47.472;7.850;2023-09-19T13:38:41;5.45;;;1.52;;
32760;SDS011;19126;47.472;7.850;2023-09-19T13:41:09;3.85;;;1.58;;
32760;SDS011;19126;47.472;7.850;2023-09-19T13:43:37;3.83;;;1.40;;
32760;SDS011;19126;47.472;7.850;2023-09-19T13:46:05;6.97;;;1.70;;
32760;SDS011;19126;47.472;7.850;2023-09-19T13:48:37;4.55;;;1.70;;
32760;SDS011;19126;47.472;7.850;2023-09-19T13:51:04;9.55;;;1.42;;
32760;SDS011;19126;47.472;7.850;2023-09-19T13:53:31;3.00;;;1.33;;
32760;SDS011;19126;47.472;7.850;2023-09-19T13:56:00;3.53;;;1.38;;
32760;SDS011;19126;47.472;7.850;2023-09-19T13:58:28;5.22;;;1.45;;
32760;SDS011;19126;47.472;7.850;2023-09-19T14:00:56;9.70;;;2.70;;
32760;SDS011;19126;47.472;7.850;2023-09-19T14:03:25;4.05;;;1.63;;
32760;SDS011;19126;47.472;7.850;2023-09-19T14:05:54;4.18;;;1.52;;
32760;SDS011;19126;47.472;7.850;2023-09-19T14:08:21;2.78;;;1.23;;
32760;SDS011;19126;47.472;7.850;2023-09-19T14:10:50;7.15;;;1.50;;
32760;SDS011;19126;47.472;7.850;2023-09-19T14:13:20;3.88;;;1.02;;
32760;SDS011;19126;47.472;7.850;2023-09-19T14:15:47;3.88;;;1.30;;
32760;SDS011;19126;47.472;7.850;2023-09-19T14:18:14;6.15;;;1.25;;
32760;SDS011;19126;47.472;7.850;2023-09-19T14:20:43;4.53;;;1.77;;
32760;SDS011;19126;47.472;7.850;2023-09-19T14:23:10;6.57;;;1.00;;
32760;SDS011;19126;47.472;7.850;2023-09-19T14:25:38;16.55;;;1.38;;
32760;SDS011;19126;47.472;7.850;2023-09-19T14:28:06;5.45;;;1.00;;
32760;SDS011;19126;47.472;7.850;2023-09-19T14:30:36;5.57;;;1.10;;
32760;SDS011;19126;47.472;7.850;2023-09-19T14:33:04;3.67;;;1.15;;
32760;SDS011;19126;47.472;7.850;2023-09-19T14:35:32;4.40;;;1.27;;
32760;SDS011;19126;47.472;7.850;2023-09-19T14:37:59;5.47;;;1.40;;
32760;SDS011;19126;47.472;7.850;2023-09-19T14:40:27;3.20;;;1.10;;
32760;SDS011;19126;47.472;7.850;2023-09-19T14:42:54;2.67;;;1.27;;
32760;SDS011;19126;47.472;7.850;2023-09-19T14:45:21;2.50;;;1.00;;
32760;SDS011;19126;47.472;7.850;2023-09-19T14:47:52;1.30;;;0.90;;
32760;SDS011;19126;47.472;7.850;2023-09-19T14:50:20;4.53;;;1.27;;
32760;SDS011;19126;47.472;7.850;2023-09-19T14:52:47;3.75;;;1.25;;
32760;SDS011;19126;47.472;7.850;2023-09-19T14:55:16;1.92;;;1.05;;
32760;SDS011;19126;47.472;7.850;2023-09-19T14:57:48;2.90;;;1.08;;
32760;SDS011;19126;47.472;7.850;2023-09-19T15:00:17;2.35;;;1.00;;
32760;SDS011;19126;47.472;7.850;2023-09-19T15:02:46;1.13;;;1.00;;
32760;SDS011;19126;47.472;7.850;2023-09-19T15:05:16;3.15;;;0.95;;
32760;SDS011;19126;47.472;7.850;2023-09-19T15:07:44;2.95;;;1.23;;
32760;SDS011;19126;47.472;7.850;2023-09-19T15:10:11;0.98;;;0.80;;
32760;SDS011;19126;47.472;7.850;2023-09-19T15:12:39;2.05;;;1.35;;
32760;SDS011;19126;47.472;7.850;2023-09-19T15:15:06;1.83;;;0.90;;
32760;SDS011;19126;47.472;7.850;2023-09-19T15:17:35;3.13;;;1.13;;
32760;SDS011;19126;47.472;7.850;2023-09-19T15:20:03;1.73;;;1.02;;
32760;SDS011;19126;47.472;7.850;2023-09-19T15:22:34;3.75;;;1.10;;
32760;SDS011;19126;47.472;7.850;2023-09-19T15:25:03;3.47;;;1.52;;
32760;SDS011;19126;47.472;7.850;2023-09-19T15:27:31;6.38;;;1.20;;
32760;SDS011;19126;47.472;7.850;2023-09-19T15:29:59;7.18;;;1.50;;